Hauptseite
METAR-TAF:

METAR-TAF

Flughäfen :

Flughafen Wien-Schwechat

Wien, Österreich

Breite: 48-07N, Länge: 016-34E, Höhe: 183 m

Beobachtung

Neuester Wetterbericht von vor 42 Minuten, um 22:50 UTC
Wind 12 kt aus Nordwest
Temperatur 23°C
Luftfeuchtigkeit 73%
Luftdruck 1017 hPa
Sichtweite 10 km oder mehr
keine Wolken unter 1500 m und keine Kumulonimbus oder Gewitterwolken

METAR: LOWW 222250Z 31012KT CAVOK 23/18 Q1017 NOSIG

Zeit: 01:32 (23:32 UTC)

Prognose

Neuester Wetterbericht von vor 3 Stunden und 17 Minuten, um 20:15 UTC
Gültige Prognose vom 22 um 21 UTC bis 24 um 03 UTC
Wind 12 kt aus Nordwest
Sichtweite 10 km oder mehr
keine Wolken unter 1500 m und keine Kumulonimbus oder Gewitterwolken

TAF: LOWW 222015Z 2221/2403 31012KT CAVOK TX29/2314Z TN20/2403Z

Wetterbeobachtungen und Prognosen von mehr als 4000 Flughäfen (METAR und TAF Bericht).

Die verfügbaren Stationen werden durch gelbe und rote Markierungen auf der Karte dargestellt.

Führen Sie die Maus auf sie, um den Namen der Station zu sehen.

Darauf klicken, um die Beobachtung von Wetterbeobachtungen und Prognosen zu sehen.

Um die Karte zu ändern : klicken Sie auf den grünen Tasten mit einem schwarzen Kreuz Zum Vergrößern, auf den grünen Button mit einem Gedankenstrich zu verkleinern, oder auf die grünen Pfeile für benachbarte Karten.


METAR-TAF: